createdAt,value
2022-11-03T00:01:11.607Z,43.12
2022-11-03T00:03:38.243Z,43.17
2022-11-03T00:06:04.840Z,42.55
2022-11-03T00:08:39.825Z,43.00
2022-11-03T00:11:14.093Z,42.35
2022-11-03T00:13:42.100Z,42.66
2022-11-03T00:16:09.739Z,43.08
2022-11-03T00:18:36.339Z,42.88
2022-11-03T00:21:04.680Z,42.59
2022-11-03T00:23:32.805Z,43.06
2022-11-03T00:26:14.643Z,42.41
2022-11-03T00:28:42.481Z,42.92
2022-11-03T00:31:14.133Z,42.56
2022-11-03T00:33:41.135Z,42.54
2022-11-03T00:36:08.216Z,42.60
2022-11-03T00:38:34.830Z,42.69
2022-11-03T00:41:02.223Z,42.68
2022-11-03T00:43:30.382Z,42.33
2022-11-03T00:45:57.001Z,42.40
2022-11-03T00:48:23.650Z,42.66
2022-11-03T00:50:50.265Z,42.13
2022-11-03T00:53:16.865Z,42.59
2022-11-03T00:55:49.927Z,42.50
2022-11-03T00:58:16.530Z,42.19
2022-11-03T01:00:43.217Z,42.44
2022-11-03T01:03:09.831Z,42.08
2022-11-03T01:05:40.963Z,41.89
2022-11-03T01:08:07.611Z,42.01
2022-11-03T01:10:36.448Z,41.88
2022-11-03T01:13:03.199Z,42.30
2022-11-03T01:15:29.860Z,42.37
2022-11-03T01:17:56.465Z,42.24
2022-11-03T01:20:23.061Z,42.08
2022-11-03T01:22:49.660Z,42.21
2022-11-03T01:25:16.266Z,41.80
2022-11-03T01:27:42.866Z,41.61
2022-11-03T01:30:09.883Z,41.91
2022-11-03T01:32:36.494Z,41.94
2022-11-03T01:35:03.244Z,41.85
2022-11-03T01:37:29.851Z,41.85
2022-11-03T01:39:56.462Z,41.71
2022-11-03T01:42:23.075Z,42.20
2022-11-03T01:44:49.680Z,41.96
2022-11-03T01:47:18.907Z,42.46
2022-11-03T01:49:58.610Z,42.06
2022-11-03T01:52:32.594Z,42.09
2022-11-03T01:55:01.262Z,42.14
2022-11-03T01:57:41.276Z,42.24
2022-11-03T02:00:08.249Z,42.01
2022-11-03T02:02:34.917Z,42.27
2022-11-03T02:05:02.017Z,41.78
2022-11-03T02:07:33.352Z,41.94
2022-11-03T02:09:59.956Z,41.74
2022-11-03T02:12:26.569Z,41.73
2022-11-03T02:15:02.361Z,41.94
2022-11-03T02:17:29.376Z,41.83
2022-11-03T02:20:00.103Z,41.61
2022-11-03T02:22:52.315Z,41.87
2022-11-03T02:25:41.942Z,41.44
2022-11-03T02:28:08.557Z,42.04
2022-11-03T02:31:00.219Z,41.87
2022-11-03T02:33:41.577Z,42.06
2022-11-03T02:36:18.024Z,41.34
2022-11-03T02:39:02.145Z,41.25
2022-11-03T02:41:29.085Z,41.38
2022-11-03T02:43:56.160Z,41.57
2022-11-03T02:46:22.767Z,41.43
2022-11-03T02:48:49.369Z,41.72
2022-11-03T02:51:15.972Z,41.39
2022-11-03T02:53:55.457Z,41.34
2022-11-03T02:56:22.084Z,41.34
2022-11-03T02:58:56.662Z,41.29
2022-11-03T03:01:39.862Z,41.37
2022-11-03T03:04:08.014Z,41.43
2022-11-03T03:06:37.557Z,41.57
2022-11-03T03:09:06.460Z,41.17
2022-11-03T03:11:33.865Z,41.26
2022-11-03T03:14:00.464Z,41.61
2022-11-03T03:16:27.078Z,41.16
2022-11-03T03:18:59.618Z,41.35
2022-11-03T03:21:26.881Z,41.30
2022-11-03T03:23:57.441Z,41.77
2022-11-03T03:26:45.503Z,41.49
2022-11-03T03:29:17.280Z,41.50
2022-11-03T03:31:47.924Z,41.15
2022-11-03T03:34:33.759Z,41.28
2022-11-03T03:37:01.744Z,41.23
2022-11-03T03:39:31.694Z,41.38
2022-11-03T03:41:58.298Z,41.57
2022-11-03T03:44:24.918Z,41.69
2022-11-03T03:46:53.233Z,41.20
2022-11-03T03:49:19.837Z,41.09
2022-11-03T03:51:46.457Z,41.26
2022-11-03T03:54:13.049Z,40.94
2022-11-03T03:56:43.662Z,41.22
2022-11-03T03:59:10.281Z,41.42
2022-11-03T04:01:36.965Z,41.51
2022-11-03T04:04:03.945Z,41.25
2022-11-03T04:06:30.586Z,40.95
2022-11-03T04:08:57.198Z,41.15
2022-11-03T04:11:23.810Z,41.54
2022-11-03T04:13:50.411Z,40.98
2022-11-03T04:16:17.028Z,41.10
2022-11-03T04:18:43.673Z,40.92
2022-11-03T04:21:12.481Z,41.28
2022-11-03T04:23:39.085Z,41.06
2022-11-03T04:26:10.060Z,40.90
2022-11-03T04:28:36.667Z,41.04
2022-11-03T04:31:03.257Z,40.74
2022-11-03T04:33:29.886Z,41.32
2022-11-03T04:35:58.289Z,40.87
2022-11-03T04:38:26.113Z,41.24
2022-11-03T04:40:59.307Z,41.16
2022-11-03T04:43:35.357Z,41.25
2022-11-03T04:46:01.956Z,41.14
2022-11-03T04:48:28.835Z,41.05
2022-11-03T04:50:56.592Z,41.04
2022-11-03T04:53:23.205Z,40.78
2022-11-03T04:55:51.146Z,40.69
2022-11-03T04:58:34.185Z,40.71
2022-11-03T05:01:01.234Z,40.84
2022-11-03T05:03:30.425Z,41.34
2022-11-03T05:05:57.301Z,40.90
2022-11-03T05:08:23.913Z,40.77
2022-11-03T05:10:50.521Z,40.72
2022-11-03T05:13:22.097Z,40.86
2022-11-03T05:15:48.714Z,40.82
2022-11-03T05:18:30.889Z,40.51
2022-11-03T05:21:00.819Z,40.60
2022-11-03T05:23:27.976Z,40.73
2022-11-03T05:25:54.582Z,40.30
2022-11-03T05:28:28.580Z,40.66
2022-11-03T05:30:55.217Z,40.39
2022-11-03T05:33:42.035Z,40.07
2022-11-03T05:36:13.799Z,40.21
2022-11-03T05:38:40.404Z,40.03
2022-11-03T05:41:13.044Z,40.18
2022-11-03T05:43:39.659Z,40.59
2022-11-03T05:46:08.521Z,40.65
2022-11-03T07:09:24.527Z,46.83
2022-11-03T07:11:58.204Z,45.99
2022-11-03T07:14:27.853Z,45.21
2022-11-03T07:17:04.129Z,45.10
2022-11-03T07:19:35.253Z,43.91
2022-11-03T07:22:03.777Z,43.60
2022-11-03T07:24:31.922Z,41.55
2022-11-03T07:27:31.289Z,41.97
2022-11-03T07:29:59.124Z,42.30
2022-11-03T07:32:30.230Z,41.51
2022-11-03T07:35:22.563Z,41.88
2022-11-03T07:37:50.019Z,42.03
2022-11-03T07:40:24.495Z,42.29
2022-11-03T07:42:51.438Z,42.41
2022-11-03T07:45:40.137Z,41.79
2022-11-03T07:48:26.518Z,42.18
2022-11-03T07:50:54.530Z,42.07
2022-11-03T07:53:26.122Z,42.09
2022-11-03T07:55:53.903Z,42.22
2022-11-03T07:58:20.426Z,41.96
2022-11-03T08:00:47.042Z,41.85
2022-11-03T08:03:24.957Z,42.00
2022-11-03T08:05:51.583Z,41.93
2022-11-03T08:08:18.176Z,42.20
2022-11-03T08:10:44.785Z,42.00
2022-11-03T08:13:11.397Z,41.94
2022-11-03T08:15:38.001Z,41.82
2022-11-03T08:18:04.685Z,41.66
2022-11-03T08:20:31.277Z,41.83
2022-11-03T08:23:25.213Z,42.00
2022-11-03T08:25:44.465Z,42.11
2022-11-03T08:28:11.110Z,41.87
2022-11-03T08:30:37.767Z,42.02
2022-11-03T08:33:04.656Z,41.92
2022-11-03T08:35:34.003Z,42.13
2022-11-03T08:38:00.833Z,42.23
2022-11-03T08:40:27.438Z,42.00
2022-11-03T08:42:54.055Z,41.98
2022-11-03T08:45:20.660Z,41.78
2022-11-03T08:47:47.307Z,42.21
2022-11-03T08:50:13.912Z,41.65
2022-11-03T08:52:40.522Z,42.13
2022-11-03T08:55:07.423Z,41.96
2022-11-03T08:57:34.036Z,42.29
2022-11-03T09:00:00.638Z,41.88
2022-11-03T09:02:27.300Z,42.11
2022-11-03T09:04:53.911Z,42.42
2022-11-03T09:07:21.189Z,42.34
2022-11-03T09:12:34.490Z,41.95
2022-11-03T09:15:01.099Z,42.15
2022-11-03T09:17:27.723Z,41.73
2022-11-03T09:19:54.329Z,41.81
2022-11-03T09:22:20.930Z,41.69
2022-11-03T09:24:47.551Z,41.91
2022-11-03T09:27:14.162Z,42.14
2022-11-03T09:30:10.856Z,41.65
2022-11-03T09:32:27.366Z,41.58
2022-11-03T09:34:53.989Z,41.30
2022-11-03T09:37:20.599Z,41.74
2022-11-03T09:39:47.206Z,41.38
2022-11-03T09:42:13.805Z,41.12
2022-11-03T09:44:40.426Z,41.39
2022-11-03T09:47:07.077Z,40.87
2022-11-03T09:49:33.984Z,41.32
2022-11-03T09:52:01.266Z,41.47
2022-11-03T09:54:27.878Z,41.48
2022-11-03T09:56:54.481Z,41.63
2022-11-03T09:59:23.061Z,41.53
2022-11-03T10:01:50.638Z,41.23
2022-11-03T10:04:17.413Z,41.38
2022-11-03T10:06:44.008Z,41.50
2022-11-03T10:09:16.040Z,41.31
2022-11-03T10:11:42.656Z,41.48
2022-11-03T10:14:10.033Z,41.20
2022-11-03T10:16:36.651Z,41.69
2022-11-03T10:19:03.256Z,41.84
2022-11-03T10:21:30.864Z,41.32
2022-11-03T10:23:57.470Z,41.69
2022-11-03T10:26:24.134Z,41.50
2022-11-03T10:29:06.495Z,41.11
2022-11-03T10:31:36.712Z,41.36
2022-11-03T10:34:03.540Z,41.38
2022-11-03T10:36:31.457Z,41.38
2022-11-03T10:38:58.122Z,41.42
2022-11-03T10:41:26.381Z,41.89
2022-11-03T10:44:10.876Z,41.21
2022-11-03T10:46:50.559Z,41.59
2022-11-03T10:49:18.385Z,41.25
2022-11-03T10:51:47.906Z,41.55
2022-11-03T10:54:15.776Z,41.61
2022-11-03T10:56:42.622Z,41.46
2022-11-03T10:59:13.187Z,41.66
2022-11-03T11:01:40.053Z,41.65
2022-11-03T11:04:06.834Z,41.80
2022-11-03T11:06:33.597Z,41.65
2022-11-03T11:09:04.461Z,41.65
2022-11-03T11:11:31.160Z,42.37
2022-11-03T11:14:23.460Z,41.86
2022-11-03T11:16:51.801Z,42.27
2022-11-03T11:19:18.479Z,42.01
2022-11-03T11:21:44.942Z,41.85
2022-11-03T11:24:11.613Z,42.13
2022-11-03T11:26:38.323Z,42.11
2022-11-03T11:29:07.849Z,42.05
2022-11-03T11:31:35.121Z,42.00
2022-11-03T11:34:10.649Z,42.33
2022-11-03T11:36:38.513Z,42.22
2022-11-03T11:39:20.253Z,41.87
2022-11-03T11:42:05.440Z,41.50
2022-11-03T11:44:43.982Z,41.77
2022-11-03T11:47:28.828Z,41.56
2022-11-03T11:50:07.475Z,41.91
2022-11-03T11:52:46.549Z,42.03
2022-11-03T11:55:46.823Z,41.73
2022-11-03T11:58:18.948Z,41.65
2022-11-03T12:01:20.731Z,41.20
2022-11-03T12:03:47.441Z,41.51
2022-11-03T12:06:14.270Z,42.23
2022-11-03T12:08:41.305Z,42.00
2022-11-03T12:11:08.077Z,42.04
2022-11-03T12:13:42.168Z,41.83
2022-11-03T12:16:08.791Z,42.24
2022-11-03T12:18:47.669Z,42.40
2022-11-03T12:21:44.638Z,42.16
2022-11-03T12:24:32.741Z,42.41
2022-11-03T12:26:59.861Z,42.46
2022-11-03T12:29:26.511Z,43.13
2022-11-03T12:31:53.313Z,42.41
2022-11-03T12:34:19.923Z,42.85
2022-11-03T12:36:47.970Z,42.59
2022-11-03T12:39:16.237Z,42.32
2022-11-03T12:41:42.836Z,42.50
2022-11-03T12:44:09.514Z,42.34
2022-11-03T12:46:36.161Z,42.57
2022-11-03T12:49:02.791Z,42.95
2022-11-03T12:51:29.400Z,43.02
2022-11-03T12:53:56.030Z,42.48
2022-11-03T12:56:22.654Z,42.64
2022-11-03T12:58:49.298Z,42.92
2022-11-03T13:01:15.996Z,42.96
2022-11-03T13:03:42.724Z,42.97
2022-11-03T13:06:09.395Z,42.95
2022-11-03T13:08:36.342Z,42.63
2022-11-03T13:11:02.960Z,42.36
2022-11-03T13:13:29.578Z,43.12
2022-11-03T13:15:56.185Z,43.26
2022-11-03T13:18:22.825Z,43.12
2022-11-03T13:20:49.424Z,43.70
2022-11-03T13:23:18.778Z,42.91
2022-11-03T13:25:48.668Z,42.58
2022-11-03T13:28:15.335Z,43.05
2022-11-03T13:30:41.949Z,42.46
2022-11-03T13:33:08.940Z,42.64
2022-11-03T13:35:35.965Z,43.07
2022-11-03T13:38:02.649Z,43.31
2022-11-03T13:40:54.762Z,43.29
2022-11-03T13:43:15.864Z,43.61
2022-11-03T13:45:42.476Z,43.77
2022-11-03T13:50:55.751Z,43.83
2022-11-03T13:56:13.226Z,44.95
2022-11-03T14:01:30.829Z,44.38
2022-11-03T14:06:44.105Z,44.43
2022-11-03T14:09:10.739Z,44.72
2022-11-03T14:11:37.406Z,44.91
2022-11-03T14:14:04.013Z,44.87
2022-11-03T14:16:30.706Z,44.93
2022-11-03T14:18:57.377Z,45.35
2022-11-03T14:21:24.016Z,44.79
2022-11-03T14:23:50.625Z,44.68
2022-11-03T14:26:23.946Z,45.06
2022-11-03T14:29:00.194Z,44.69
2022-11-03T14:31:26.811Z,44.52
2022-11-03T14:33:53.414Z,44.57
2022-11-03T14:36:20.033Z,44.37
2022-11-03T14:38:50.009Z,44.75
2022-11-03T14:41:16.810Z,44.98
2022-11-03T14:43:43.429Z,44.84
2022-11-03T14:46:10.084Z,44.36
2022-11-03T14:48:36.778Z,44.56
2022-11-03T14:51:03.407Z,44.89
2022-11-03T14:53:30.006Z,44.74
2022-11-03T14:55:56.741Z,44.60
2022-11-03T14:58:23.335Z,44.28
2022-11-03T15:00:49.971Z,44.21
2022-11-03T15:03:16.778Z,44.21
2022-11-03T15:05:43.397Z,44.31
2022-11-03T15:08:13.722Z,44.33
2022-11-03T15:10:40.345Z,44.03
2022-11-03T15:13:07.167Z,44.26
2022-11-03T15:15:34.070Z,44.42
2022-11-03T15:18:02.962Z,44.20
2022-11-03T15:20:30.012Z,44.53
2022-11-03T15:25:43.254Z,44.47
2022-11-03T15:28:10.070Z,44.18
2022-11-03T15:30:36.812Z,44.28
2022-11-03T15:33:03.606Z,44.41
2022-11-03T15:35:30.298Z,44.14
2022-11-03T15:37:56.954Z,44.35
2022-11-03T15:40:23.562Z,44.20
2022-11-03T15:42:50.167Z,44.12
2022-11-03T15:45:16.835Z,44.40
2022-11-03T15:47:43.546Z,44.38
2022-11-03T15:50:10.356Z,44.36
2022-11-03T15:52:36.960Z,44.32
2022-11-03T15:55:04.313Z,44.76
2022-11-03T15:57:30.982Z,44.43
2022-11-03T15:59:57.957Z,44.23
2022-11-03T16:02:40.734Z,44.17
2022-11-03T16:05:09.201Z,44.25
2022-11-03T16:07:35.818Z,44.70
2022-11-03T16:10:02.552Z,44.17
2022-11-03T16:12:30.076Z,44.46
2022-11-03T16:14:56.757Z,44.26
2022-11-03T16:17:23.365Z,44.24
2022-11-03T16:19:50.074Z,44.14
2022-11-03T16:22:16.686Z,44.10
2022-11-03T16:24:43.290Z,44.40
2022-11-03T16:27:09.985Z,44.16
2022-11-03T16:29:36.608Z,44.10
2022-11-03T16:32:03.223Z,44.20
2022-11-03T16:34:29.840Z,43.92
2022-11-03T16:36:56.463Z,44.21
2022-11-03T16:39:23.058Z,44.11
2022-11-03T16:41:49.665Z,43.75
2022-11-03T16:44:16.272Z,44.21
2022-11-03T16:46:42.882Z,43.37
2022-11-03T16:49:09.484Z,43.17
2022-11-03T16:51:36.098Z,43.50
2022-11-03T16:54:02.698Z,43.35
2022-11-03T16:56:29.298Z,43.34
2022-11-03T16:58:55.915Z,42.17
2022-11-03T17:01:22.887Z,42.33
2022-11-03T17:03:49.557Z,42.65
2022-11-03T17:06:16.182Z,43.12
2022-11-03T17:08:57.991Z,43.33
2022-11-03T17:11:24.610Z,44.43
2022-11-03T17:13:51.257Z,45.04
2022-11-03T17:16:17.911Z,45.25
2022-11-03T17:18:44.509Z,45.74
2022-11-03T17:21:11.126Z,46.13
2022-11-03T17:23:37.733Z,46.30
2022-11-03T17:26:04.374Z,46.07
2022-11-03T17:28:30.994Z,46.08
2022-11-03T17:30:57.597Z,45.57
2022-11-03T17:33:24.201Z,45.95
2022-11-03T17:35:50.809Z,45.46
2022-11-03T17:38:17.494Z,45.67
2022-11-03T17:40:47.485Z,47.10
2022-11-03T17:43:26.396Z,47.01
2022-11-03T17:45:53.005Z,46.39
2022-11-03T17:48:20.021Z,46.64
2022-11-03T17:50:48.690Z,47.04
2022-11-03T17:53:33.445Z,47.05
2022-11-03T17:56:28.513Z,47.27
2022-11-03T17:58:47.466Z,47.25
2022-11-03T18:01:19.994Z,47.29
2022-11-03T18:03:46.699Z,47.02
2022-11-03T18:06:15.621Z,47.52
2022-11-03T18:08:42.296Z,47.33
2022-11-03T18:11:09.009Z,47.13
2022-11-03T18:13:35.612Z,46.77
2022-11-03T18:16:05.403Z,47.02
2022-11-03T18:18:34.430Z,46.56
2022-11-03T18:21:01.061Z,46.72
2022-11-03T18:23:31.873Z,46.65
2022-11-03T18:25:59.241Z,46.35
2022-11-03T18:28:25.844Z,46.68
2022-11-03T18:30:53.605Z,46.96
2022-11-03T18:33:34.445Z,46.61
2022-11-03T18:36:05.266Z,46.63
2022-11-03T18:38:31.876Z,46.34
2022-11-03T18:40:58.481Z,46.21
2022-11-03T18:43:25.202Z,46.32
2022-11-03T18:45:51.867Z,45.85
2022-11-03T18:48:18.469Z,45.93
2022-11-03T18:50:46.658Z,46.92
2022-11-03T18:53:13.302Z,46.54
2022-11-03T18:55:39.965Z,47.02
2022-11-03T18:58:12.993Z,46.99
2022-11-03T19:00:39.636Z,46.67
2022-11-03T19:03:18.043Z,47.24
2022-11-03T19:05:45.486Z,46.77
2022-11-03T19:08:21.946Z,46.90
2022-11-03T19:10:48.624Z,46.91
2022-11-03T19:13:18.637Z,47.53
2022-11-03T19:15:45.243Z,45.30
2022-11-03T19:18:11.990Z,45.88
2022-11-03T19:20:38.602Z,46.45
2022-11-03T19:23:05.490Z,46.74
2022-11-03T19:25:32.417Z,46.96
2022-11-03T19:27:59.025Z,46.94
2022-11-03T19:30:25.646Z,47.04
2022-11-03T19:32:53.453Z,46.75
2022-11-03T19:35:25.831Z,46.83
2022-11-03T19:38:00.829Z,47.33
2022-11-03T19:40:27.833Z,46.97
2022-11-03T19:42:55.155Z,48.71
2022-11-03T19:45:22.052Z,48.58
2022-11-03T19:48:18.364Z,47.58
2022-11-03T19:50:38.232Z,46.43
2022-11-03T19:53:05.873Z,45.91
2022-11-03T19:55:40.132Z,45.20
2022-11-03T19:58:17.017Z,45.03
2022-11-03T20:00:44.349Z,44.38
2022-11-03T20:03:11.080Z,44.20
2022-11-03T20:05:37.970Z,43.77
2022-11-03T20:08:06.414Z,43.38
2022-11-03T20:10:35.878Z,42.98
2022-11-03T20:13:03.133Z,42.61
2022-11-03T20:15:30.727Z,42.69
2022-11-03T20:17:57.381Z,41.91
2022-11-03T20:20:24.430Z,42.02
2022-11-03T20:22:55.753Z,41.46
2022-11-03T20:25:26.729Z,41.21
2022-11-03T20:27:53.474Z,41.30
2022-11-03T20:30:20.732Z,40.84
2022-11-03T20:32:47.479Z,40.71
2022-11-03T20:35:25.053Z,40.70
2022-11-03T20:37:53.316Z,40.36
2022-11-03T20:40:24.231Z,40.57
2022-11-03T20:42:53.679Z,40.38
2022-11-03T20:45:20.980Z,40.42
2022-11-03T20:47:48.418Z,40.36
2022-11-03T20:50:15.921Z,39.87
2022-11-03T20:52:42.775Z,39.71
2022-11-03T20:55:22.201Z,39.69
2022-11-03T20:57:49.007Z,39.52
2022-11-03T21:00:25.854Z,39.55
2022-11-03T21:02:52.469Z,39.69
2022-11-03T21:05:21.133Z,39.02
2022-11-03T21:07:47.758Z,39.16
2022-11-03T21:10:20.212Z,39.11
2022-11-03T21:12:47.323Z,38.88
2022-11-03T21:15:17.770Z,38.55
2022-11-03T21:17:44.674Z,38.45
2022-11-03T21:20:11.401Z,38.66
2022-11-03T21:22:56.925Z,38.39
2022-11-03T21:25:24.178Z,38.51
2022-11-03T21:27:51.575Z,38.27
2022-11-03T21:30:18.699Z,43.08
2022-11-03T21:32:45.351Z,44.75
2022-11-03T21:35:14.468Z,45.30
2022-11-03T21:37:41.129Z,45.05
2022-11-03T21:40:08.417Z,45.21
2022-11-03T21:42:35.030Z,45.61
2022-11-03T21:45:01.655Z,46.24
2022-11-03T21:47:28.309Z,46.75
2022-11-03T21:49:54.984Z,47.10
2022-11-03T21:52:22.295Z,47.16
2022-11-03T21:54:48.909Z,47.18
2022-11-03T21:57:15.552Z,47.17
2022-11-03T21:59:42.157Z,46.90
2022-11-03T22:02:10.043Z,47.55
2022-11-03T22:04:36.704Z,47.47
2022-11-03T22:07:03.330Z,47.18
2022-11-03T22:09:29.941Z,47.51
2022-11-03T22:11:56.539Z,47.54
2022-11-03T22:14:23.152Z,47.28
2022-11-03T22:16:49.840Z,47.49
2022-11-03T22:19:17.957Z,47.72
2022-11-03T22:21:44.570Z,47.92
2022-11-03T22:24:11.170Z,47.47
2022-11-03T22:26:37.784Z,47.37
2022-11-03T22:29:04.398Z,47.37
2022-11-03T22:31:31.426Z,47.21
2022-11-03T22:33:58.028Z,47.48
2022-11-03T22:36:24.648Z,47.65
2022-11-03T22:38:51.295Z,47.89
2022-11-03T22:41:17.913Z,47.90
2022-11-03T22:43:44.514Z,47.71
2022-11-03T22:46:11.557Z,48.01
2022-11-03T22:48:38.170Z,47.38
2022-11-03T22:51:12.110Z,47.68
2022-11-03T22:53:38.717Z,47.54
2022-11-03T22:56:05.330Z,47.87
2022-11-03T22:58:31.934Z,47.48
2022-11-03T23:01:02.625Z,47.50
2022-11-03T23:03:33.568Z,47.32
2022-11-03T23:06:01.645Z,47.22
2022-11-03T23:08:29.890Z,47.55
2022-11-03T23:10:56.550Z,47.56
2022-11-03T23:13:23.181Z,47.46
2022-11-03T23:15:49.790Z,47.36
2022-11-03T23:18:16.387Z,47.58
2022-11-03T23:20:43.000Z,47.36
2022-11-03T23:23:09.941Z,47.48
2022-11-03T23:25:36.870Z,47.83
2022-11-03T23:28:03.484Z,47.46
2022-11-03T23:30:30.075Z,47.64
2022-11-03T23:32:56.678Z,47.49
2022-11-03T23:35:23.282Z,47.86
2022-11-03T23:37:49.886Z,46.80
2022-11-03T23:40:20.347Z,47.53
2022-11-03T23:42:48.171Z,47.33
2022-11-03T23:45:14.787Z,47.23
2022-11-03T23:47:41.387Z,47.51
2022-11-03T23:50:08.229Z,47.34
2022-11-03T23:52:34.834Z,47.04
2022-11-03T23:55:01.444Z,46.96
2022-11-03T23:57:28.081Z,46.60
2022-11-03T23:59:54.698Z,47.54
